sensor_id;sensor_type;location;lat;lon;timestamp;P1;durP1;ratioP1;P2;durP2;ratioP2
28335;SDS011;15592;53.656;7.276;2023-08-08T00:02:00;13.00;;;2.50;;
28335;SDS011;15592;53.656;7.276;2023-08-08T00:04:26;19.85;;;3.55;;
28335;SDS011;15592;53.656;7.276;2023-08-08T00:06:52;15.05;;;2.97;;
28335;SDS011;15592;53.656;7.276;2023-08-08T00:09:17;16.17;;;2.45;;
28335;SDS011;15592;53.656;7.276;2023-08-08T00:11:43;14.05;;;2.47;;
28335;SDS011;15592;53.656;7.276;2023-08-08T00:14:09;14.88;;;3.20;;
28335;SDS011;15592;53.656;7.276;2023-08-08T00:16:34;7.32;;;2.20;;
28335;SDS011;15592;53.656;7.276;2023-08-08T00:19:00;9.93;;;2.45;;
28335;SDS011;15592;53.656;7.276;2023-08-08T00:21:25;11.07;;;2.30;;
28335;SDS011;15592;53.656;7.276;2023-08-08T00:23:51;11.88;;;2.70;;
28335;SDS011;15592;53.656;7.276;2023-08-08T00:26:17;14.95;;;3.25;;
28335;SDS011;15592;53.656;7.276;2023-08-08T00:28:42;14.68;;;3.05;;
28335;SDS011;15592;53.656;7.276;2023-08-08T00:31:08;12.73;;;2.25;;
28335;SDS011;15592;53.656;7.276;2023-08-08T00:33:33;10.93;;;2.70;;
28335;SDS011;15592;53.656;7.276;2023-08-08T00:35:59;9.55;;;2.53;;
28335;SDS011;15592;53.656;7.276;2023-08-08T00:38:25;12.35;;;2.40;;
28335;SDS011;15592;53.656;7.276;2023-08-08T00:40:50;19.85;;;3.22;;
28335;SDS011;15592;53.656;7.276;2023-08-08T00:43:16;18.73;;;2.85;;
28335;SDS011;15592;53.656;7.276;2023-08-08T00:45:42;23.85;;;3.58;;
28335;SDS011;15592;53.656;7.276;2023-08-08T00:48:08;16.90;;;2.60;;
28335;SDS011;15592;53.656;7.276;2023-08-08T00:50:35;13.07;;;2.03;;
28335;SDS011;15592;53.656;7.276;2023-08-08T00:53:01;10.90;;;2.00;;
28335;SDS011;15592;53.656;7.276;2023-08-08T00:55:28;12.73;;;2.13;;
28335;SDS011;15592;53.656;7.276;2023-08-08T00:57:54;10.75;;;2.58;;
28335;SDS011;15592;53.656;7.276;2023-08-08T01:00:20;16.73;;;2.78;;
28335;SDS011;15592;53.656;7.276;2023-08-08T01:02:46;15.55;;;3.20;;
28335;SDS011;15592;53.656;7.276;2023-08-08T01:05:12;12.30;;;2.90;;
28335;SDS011;15592;53.656;7.276;2023-08-08T01:07:41;16.75;;;3.33;;
28335;SDS011;15592;53.656;7.276;2023-08-08T01:10:10;20.67;;;3.35;;
28335;SDS011;15592;53.656;7.276;2023-08-08T01:12:38;16.15;;;2.90;;
28335;SDS011;15592;53.656;7.276;2023-08-08T01:15:05;12.75;;;2.67;;
28335;SDS011;15592;53.656;7.276;2023-08-08T01:17:33;16.17;;;2.97;;
28335;SDS011;15592;53.656;7.276;2023-08-08T01:20:01;11.68;;;2.60;;
28335;SDS011;15592;53.656;7.276;2023-08-08T01:22:29;17.35;;;3.08;;
28335;SDS011;15592;53.656;7.276;2023-08-08T01:24:58;18.35;;;3.38;;
28335;SDS011;15592;53.656;7.276;2023-08-08T01:27:25;17.20;;;3.60;;
28335;SDS011;15592;53.656;7.276;2023-08-08T01:29:52;15.60;;;3.22;;
28335;SDS011;15592;53.656;7.276;2023-08-08T01:32:18;10.93;;;2.70;;
28335;SDS011;15592;53.656;7.276;2023-08-08T01:34:44;8.80;;;1.80;;
28335;SDS011;15592;53.656;7.276;2023-08-08T01:37:15;21.10;;;3.63;;
28335;SDS011;15592;53.656;7.276;2023-08-08T01:39:46;32.10;;;4.40;;
28335;SDS011;15592;53.656;7.276;2023-08-08T01:42:14;24.98;;;3.55;;
28335;SDS011;15592;53.656;7.276;2023-08-08T01:44:40;11.55;;;2.42;;
28335;SDS011;15592;53.656;7.276;2023-08-08T01:47:07;20.33;;;2.33;;
28335;SDS011;15592;53.656;7.276;2023-08-08T01:49:33;13.50;;;2.63;;
28335;SDS011;15592;53.656;7.276;2023-08-08T01:51:59;16.42;;;2.72;;
28335;SDS011;15592;53.656;7.276;2023-08-08T01:54:25;15.77;;;2.30;;
28335;SDS011;15592;53.656;7.276;2023-08-08T01:56:50;17.83;;;2.97;;
28335;SDS011;15592;53.656;7.276;2023-08-08T01:59:16;16.05;;;2.88;;
28335;SDS011;15592;53.656;7.276;2023-08-08T02:01:42;13.85;;;2.38;;
28335;SDS011;15592;53.656;7.276;2023-08-08T02:04:07;14.00;;;3.25;;
28335;SDS011;15592;53.656;7.276;2023-08-08T02:06:33;21.73;;;3.20;;
28335;SDS011;15592;53.656;7.276;2023-08-08T02:08:59;12.95;;;2.65;;
28335;SDS011;15592;53.656;7.276;2023-08-08T02:11:25;16.17;;;2.22;;
28335;SDS011;15592;53.656;7.276;2023-08-08T02:13:50;9.60;;;1.55;;
28335;SDS011;15592;53.656;7.276;2023-08-08T02:16:16;10.13;;;1.67;;
28335;SDS011;15592;53.656;7.276;2023-08-08T02:18:42;9.57;;;1.90;;
28335;SDS011;15592;53.656;7.276;2023-08-08T02:21:07;13.68;;;2.33;;
28335;SDS011;15592;53.656;7.276;2023-08-08T02:23:34;11.30;;;2.17;;
28335;SDS011;15592;53.656;7.276;2023-08-08T02:25:59;11.15;;;2.58;;
28335;SDS011;15592;53.656;7.276;2023-08-08T02:28:25;11.48;;;2.58;;
28335;SDS011;15592;53.656;7.276;2023-08-08T02:30:52;9.85;;;2.47;;
28335;SDS011;15592;53.656;7.276;2023-08-08T02:33:18;10.40;;;2.70;;
28335;SDS011;15592;53.656;7.276;2023-08-08T02:35:44;18.08;;;2.95;;
28335;SDS011;15592;53.656;7.276;2023-08-08T02:38:10;14.50;;;2.45;;
28335;SDS011;15592;53.656;7.276;2023-08-08T02:40:35;15.10;;;2.42;;
28335;SDS011;15592;53.656;7.276;2023-08-08T02:43:01;9.75;;;2.20;;
28335;SDS011;15592;53.656;7.276;2023-08-08T02:45:27;10.93;;;2.28;;
28335;SDS011;15592;53.656;7.276;2023-08-08T02:47:52;12.85;;;2.40;;
28335;SDS011;15592;53.656;7.276;2023-08-08T02:50:18;8.13;;;2.42;;
28335;SDS011;15592;53.656;7.276;2023-08-08T02:52:44;6.35;;;2.10;;
28335;SDS011;15592;53.656;7.276;2023-08-08T02:55:10;8.68;;;2.05;;
28335;SDS011;15592;53.656;7.276;2023-08-08T02:57:35;12.85;;;2.78;;
28335;SDS011;15592;53.656;7.276;2023-08-08T03:00:01;10.93;;;2.50;;
28335;SDS011;15592;53.656;7.276;2023-08-08T03:02:29;12.88;;;2.75;;
28335;SDS011;15592;53.656;7.276;2023-08-08T03:04:55;14.43;;;3.22;;
28335;SDS011;15592;53.656;7.276;2023-08-08T03:07:20;12.20;;;2.17;;
28335;SDS011;15592;53.656;7.276;2023-08-08T03:09:46;16.42;;;3.20;;
28335;SDS011;15592;53.656;7.276;2023-08-08T03:12:11;32.50;;;4.55;;
28335;SDS011;15592;53.656;7.276;2023-08-08T03:14:37;25.67;;;4.50;;
28335;SDS011;15592;53.656;7.276;2023-08-08T03:17:03;26.70;;;4.40;;
28335;SDS011;15592;53.656;7.276;2023-08-08T03:19:29;15.70;;;2.70;;
28335;SDS011;15592;53.656;7.276;2023-08-08T03:21:54;16.90;;;2.92;;
28335;SDS011;15592;53.656;7.276;2023-08-08T03:24:20;10.07;;;2.97;;
28335;SDS011;15592;53.656;7.276;2023-08-08T03:26:45;10.98;;;2.97;;
28335;SDS011;15592;53.656;7.276;2023-08-08T03:29:11;11.05;;;2.67;;
28335;SDS011;15592;53.656;7.276;2023-08-08T03:31:38;17.42;;;3.05;;
28335;SDS011;15592;53.656;7.276;2023-08-08T03:34:03;14.77;;;3.75;;
28335;SDS011;15592;53.656;7.276;2023-08-08T03:36:29;13.65;;;3.10;;
28335;SDS011;15592;53.656;7.276;2023-08-08T03:38:55;12.90;;;2.22;;
28335;SDS011;15592;53.656;7.276;2023-08-08T03:41:20;12.73;;;2.70;;
28335;SDS011;15592;53.656;7.276;2023-08-08T03:43:47;18.05;;;3.47;;
28335;SDS011;15592;53.656;7.276;2023-08-08T03:46:13;13.25;;;3.20;;
28335;SDS011;15592;53.656;7.276;2023-08-08T03:48:38;13.90;;;3.13;;
28335;SDS011;15592;53.656;7.276;2023-08-08T03:51:04;15.93;;;3.22;;
28335;SDS011;15592;53.656;7.276;2023-08-08T03:53:31;15.68;;;3.10;;
28335;SDS011;15592;53.656;7.276;2023-08-08T03:55:57;15.60;;;2.88;;
28335;SDS011;15592;53.656;7.276;2023-08-08T03:58:23;14.68;;;3.15;;
28335;SDS011;15592;53.656;7.276;2023-08-08T04:00:49;12.85;;;3.08;;
28335;SDS011;15592;53.656;7.276;2023-08-08T04:03:15;12.18;;;3.40;;
28335;SDS011;15592;53.656;7.276;2023-08-08T04:05:45;11.77;;;2.75;;
28335;SDS011;15592;53.656;7.276;2023-08-08T04:10:37;8.40;;;2.28;;
28335;SDS011;15592;53.656;7.276;2023-08-08T04:13:03;10.48;;;2.58;;
28335;SDS011;15592;53.656;7.276;2023-08-08T04:15:29;11.50;;;3.47;;
28335;SDS011;15592;53.656;7.276;2023-08-08T04:17:54;13.02;;;2.58;;
28335;SDS011;15592;53.656;7.276;2023-08-08T04:20:20;13.70;;;2.53;;
28335;SDS011;15592;53.656;7.276;2023-08-08T04:22:45;10.63;;;2.47;;
28335;SDS011;15592;53.656;7.276;2023-08-08T04:25:11;11.77;;;2.83;;
28335;SDS011;15592;53.656;7.276;2023-08-08T04:27:37;13.93;;;2.97;;
28335;SDS011;15592;53.656;7.276;2023-08-08T04:30:02;8.93;;;2.13;;
28335;SDS011;15592;53.656;7.276;2023-08-08T04:32:29;16.90;;;3.80;;
28335;SDS011;15592;53.656;7.276;2023-08-08T04:34:55;14.35;;;2.85;;
28335;SDS011;15592;53.656;7.276;2023-08-08T04:37:21;10.98;;;2.58;;
28335;SDS011;15592;53.656;7.276;2023-08-08T04:39:46;11.95;;;2.58;;
28335;SDS011;15592;53.656;7.276;2023-08-08T04:42:12;16.42;;;2.60;;
28335;SDS011;15592;53.656;7.276;2023-08-08T04:44:38;11.52;;;3.13;;
28335;SDS011;15592;53.656;7.276;2023-08-08T04:47:04;7.97;;;3.05;;
28335;SDS011;15592;53.656;7.276;2023-08-08T04:49:29;13.25;;;3.05;;
28335;SDS011;15592;53.656;7.276;2023-08-08T04:51:55;16.02;;;3.38;;
28335;SDS011;15592;53.656;7.276;2023-08-08T04:54:21;7.47;;;2.83;;
28335;SDS011;15592;53.656;7.276;2023-08-08T04:56:46;11.77;;;2.92;;
28335;SDS011;15592;53.656;7.276;2023-08-08T04:59:12;13.30;;;2.88;;
28335;SDS011;15592;53.656;7.276;2023-08-08T05:01:37;13.40;;;3.05;;
28335;SDS011;15592;53.656;7.276;2023-08-08T05:04:03;9.75;;;2.70;;
28335;SDS011;15592;53.656;7.276;2023-08-08T05:06:29;12.38;;;3.00;;
28335;SDS011;15592;53.656;7.276;2023-08-08T05:08:55;10.80;;;3.47;;
28335;SDS011;15592;53.656;7.276;2023-08-08T05:11:21;15.20;;;3.00;;
28335;SDS011;15592;53.656;7.276;2023-08-08T05:13:47;12.43;;;2.75;;
28335;SDS011;15592;53.656;7.276;2023-08-08T05:16:13;8.77;;;2.83;;
28335;SDS011;15592;53.656;7.276;2023-08-08T05:18:39;12.07;;;3.30;;
28335;SDS011;15592;53.656;7.276;2023-08-08T05:21:05;12.52;;;2.75;;
28335;SDS011;15592;53.656;7.276;2023-08-08T05:23:31;13.20;;;2.90;;
28335;SDS011;15592;53.656;7.276;2023-08-08T05:25:57;9.73;;;2.42;;
28335;SDS011;15592;53.656;7.276;2023-08-08T05:28:23;13.25;;;2.92;;
28335;SDS011;15592;53.656;7.276;2023-08-08T05:30:48;13.73;;;2.90;;
28335;SDS011;15592;53.656;7.276;2023-08-08T05:33:14;12.88;;;3.33;;
28335;SDS011;15592;53.656;7.276;2023-08-08T05:35:40;9.25;;;2.20;;
28335;SDS011;15592;53.656;7.276;2023-08-08T05:38:05;11.52;;;2.25;;
28335;SDS011;15592;53.656;7.276;2023-08-08T05:40:34;15.48;;;3.13;;
28335;SDS011;15592;53.656;7.276;2023-08-08T05:43:00;20.58;;;3.50;;
28335;SDS011;15592;53.656;7.276;2023-08-08T05:45:26;15.48;;;3.20;;
28335;SDS011;15592;53.656;7.276;2023-08-08T05:47:52;21.55;;;3.53;;
28335;SDS011;15592;53.656;7.276;2023-08-08T05:50:18;25.65;;;4.03;;
28335;SDS011;15592;53.656;7.276;2023-08-08T05:52:44;20.33;;;3.85;;
28335;SDS011;15592;53.656;7.276;2023-08-08T05:55:10;27.70;;;4.22;;
28335;SDS011;15592;53.656;7.276;2023-08-08T05:57:35;21.92;;;3.80;;
28335;SDS011;15592;53.656;7.276;2023-08-08T06:00:02;10.27;;;2.70;;
28335;SDS011;15592;53.656;7.276;2023-08-08T06:02:30;18.13;;;3.13;;
28335;SDS011;15592;53.656;7.276;2023-08-08T06:04:55;14.15;;;2.75;;
28335;SDS011;15592;53.656;7.276;2023-08-08T06:07:21;20.63;;;3.17;;
28335;SDS011;15592;53.656;7.276;2023-08-08T06:09:47;13.30;;;3.08;;
28335;SDS011;15592;53.656;7.276;2023-08-08T06:12:12;10.60;;;2.58;;
28335;SDS011;15592;53.656;7.276;2023-08-08T06:14:38;16.65;;;2.90;;
28335;SDS011;15592;53.656;7.276;2023-08-08T06:17:03;22.65;;;3.78;;
28335;SDS011;15592;53.656;7.276;2023-08-08T06:19:30;15.15;;;2.90;;
28335;SDS011;15592;53.656;7.276;2023-08-08T06:21:56;11.27;;;2.78;;
28335;SDS011;15592;53.656;7.276;2023-08-08T06:24:21;21.27;;;4.65;;
28335;SDS011;15592;53.656;7.276;2023-08-08T06:26:47;22.95;;;4.95;;
28335;SDS011;15592;53.656;7.276;2023-08-08T06:29:12;27.40;;;4.43;;
28335;SDS011;15592;53.656;7.276;2023-08-08T06:31:39;21.77;;;3.42;;
28335;SDS011;15592;53.656;7.276;2023-08-08T06:34:05;13.30;;;3.05;;
28335;SDS011;15592;53.656;7.276;2023-08-08T06:36:31;14.25;;;2.95;;
28335;SDS011;15592;53.656;7.276;2023-08-08T06:38:57;10.40;;;2.45;;
28335;SDS011;15592;53.656;7.276;2023-08-08T06:41:22;11.30;;;2.42;;
28335;SDS011;15592;53.656;7.276;2023-08-08T06:43:48;17.08;;;3.00;;
28335;SDS011;15592;53.656;7.276;2023-08-08T06:46:14;15.88;;;2.88;;
28335;SDS011;15592;53.656;7.276;2023-08-08T06:48:41;18.35;;;3.10;;
28335;SDS011;15592;53.656;7.276;2023-08-08T06:51:08;12.95;;;2.70;;
28335;SDS011;15592;53.656;7.276;2023-08-08T06:53:33;13.68;;;2.90;;
28335;SDS011;15592;53.656;7.276;2023-08-08T06:55:59;12.82;;;2.90;;
28335;SDS011;15592;53.656;7.276;2023-08-08T06:58:24;15.50;;;2.55;;
28335;SDS011;15592;53.656;7.276;2023-08-08T07:00:50;10.27;;;2.30;;
28335;SDS011;15592;53.656;7.276;2023-08-08T07:03:16;9.75;;;2.13;;
28335;SDS011;15592;53.656;7.276;2023-08-08T07:05:42;9.88;;;2.17;;
28335;SDS011;15592;53.656;7.276;2023-08-08T07:08:07;12.90;;;3.38;;
28335;SDS011;15592;53.656;7.276;2023-08-08T07:10:34;9.98;;;2.45;;
28335;SDS011;15592;53.656;7.276;2023-08-08T07:13:00;14.15;;;2.92;;
28335;SDS011;15592;53.656;7.276;2023-08-08T07:15:26;14.27;;;2.92;;
28335;SDS011;15592;53.656;7.276;2023-08-08T07:17:52;13.32;;;3.33;;
28335;SDS011;15592;53.656;7.276;2023-08-08T07:20:19;12.68;;;3.22;;
28335;SDS011;15592;53.656;7.276;2023-08-08T07:22:44;21.02;;;3.28;;
28335;SDS011;15592;53.656;7.276;2023-08-08T07:25:11;13.93;;;2.85;;
28335;SDS011;15592;53.656;7.276;2023-08-08T07:27:36;19.30;;;3.03;;
28335;SDS011;15592;53.656;7.276;2023-08-08T07:30:03;17.88;;;3.05;;
28335;SDS011;15592;53.656;7.276;2023-08-08T07:32:29;10.73;;;2.45;;
28335;SDS011;15592;53.656;7.276;2023-08-08T07:34:55;18.15;;;3.42;;
28335;SDS011;15592;53.656;7.276;2023-08-08T07:37:21;15.32;;;2.60;;
28335;SDS011;15592;53.656;7.276;2023-08-08T07:39:49;17.17;;;2.92;;
28335;SDS011;15592;53.656;7.276;2023-08-08T07:42:16;17.52;;;3.33;;
28335;SDS011;15592;53.656;7.276;2023-08-08T07:44:42;10.13;;;2.50;;
28335;SDS011;15592;53.656;7.276;2023-08-08T07:47:08;12.68;;;2.85;;
28335;SDS011;15592;53.656;7.276;2023-08-08T07:49:33;17.90;;;2.97;;
28335;SDS011;15592;53.656;7.276;2023-08-08T07:51:59;19.45;;;3.28;;
28335;SDS011;15592;53.656;7.276;2023-08-08T07:54:25;17.48;;;3.67;;
28335;SDS011;15592;53.656;7.276;2023-08-08T07:56:50;24.60;;;3.78;;
28335;SDS011;15592;53.656;7.276;2023-08-08T07:59:16;20.23;;;3.90;;
28335;SDS011;15592;53.656;7.276;2023-08-08T08:01:41;20.38;;;3.60;;
28335;SDS011;15592;53.656;7.276;2023-08-08T08:04:07;20.23;;;4.13;;
28335;SDS011;15592;53.656;7.276;2023-08-08T08:06:33;22.02;;;3.92;;
28335;SDS011;15592;53.656;7.276;2023-08-08T08:08:58;18.95;;;3.92;;
28335;SDS011;15592;53.656;7.276;2023-08-08T08:11:24;17.30;;;3.65;;
28335;SDS011;15592;53.656;7.276;2023-08-08T08:13:50;13.07;;;3.38;;
28335;SDS011;15592;53.656;7.276;2023-08-08T08:16:15;8.23;;;2.85;;
28335;SDS011;15592;53.656;7.276;2023-08-08T08:18:41;18.30;;;3.08;;
28335;SDS011;15592;53.656;7.276;2023-08-08T08:21:07;15.38;;;3.25;;
28335;SDS011;15592;53.656;7.276;2023-08-08T08:23:33;14.27;;;3.13;;
28335;SDS011;15592;53.656;7.276;2023-08-08T08:25:58;20.63;;;3.40;;
28335;SDS011;15592;53.656;7.276;2023-08-08T08:28:25;11.50;;;2.50;;
28335;SDS011;15592;53.656;7.276;2023-08-08T08:30:51;14.65;;;3.05;;
28335;SDS011;15592;53.656;7.276;2023-08-08T08:33:16;8.75;;;3.00;;
28335;SDS011;15592;53.656;7.276;2023-08-08T08:35:42;7.53;;;2.10;;
28335;SDS011;15592;53.656;7.276;2023-08-08T08:38:08;12.43;;;2.90;;
28335;SDS011;15592;53.656;7.276;2023-08-08T08:40:34;7.80;;;2.42;;
28335;SDS011;15592;53.656;7.276;2023-08-08T08:43:02;7.22;;;2.33;;
28335;SDS011;15592;53.656;7.276;2023-08-08T08:45:29;9.18;;;2.28;;
28335;SDS011;15592;53.656;7.276;2023-08-08T08:47:56;15.55;;;2.38;;
28335;SDS011;15592;53.656;7.276;2023-08-08T08:50:26;11.40;;;2.78;;
28335;SDS011;15592;53.656;7.276;2023-08-08T08:52:54;8.82;;;2.53;;
28335;SDS011;15592;53.656;7.276;2023-08-08T08:55:21;7.93;;;2.58;;
28335;SDS011;15592;53.656;7.276;2023-08-08T08:57:48;13.57;;;2.35;;
28335;SDS011;15592;53.656;7.276;2023-08-08T09:00:15;13.05;;;2.38;;
28335;SDS011;15592;53.656;7.276;2023-08-08T09:02:41;13.15;;;2.45;;
28335;SDS011;15592;53.656;7.276;2023-08-08T09:05:07;9.65;;;2.72;;
28335;SDS011;15592;53.656;7.276;2023-08-08T09:07:33;14.55;;;2.45;;
28335;SDS011;15592;53.656;7.276;2023-08-08T09:10:01;11.43;;;2.47;;
28335;SDS011;15592;53.656;7.276;2023-08-08T09:12:27;12.13;;;2.60;;
28335;SDS011;15592;53.656;7.276;2023-08-08T09:14:56;20.45;;;3.30;;
28335;SDS011;15592;53.656;7.276;2023-08-08T09:17:21;7.03;;;2.17;;
28335;SDS011;15592;53.656;7.276;2023-08-08T09:19:49;8.02;;;1.92;;
28335;SDS011;15592;53.656;7.276;2023-08-08T09:22:15;11.75;;;2.28;;
28335;SDS011;15592;53.656;7.276;2023-08-08T09:24:41;7.80;;;1.92;;
28335;SDS011;15592;53.656;7.276;2023-08-08T09:27:07;10.95;;;2.40;;
28335;SDS011;15592;53.656;7.276;2023-08-08T09:29:34;16.98;;;3.40;;
28335;SDS011;15592;53.656;7.276;2023-08-08T09:32:02;16.75;;;3.40;;
28335;SDS011;15592;53.656;7.276;2023-08-08T09:34:29;16.13;;;3.55;;
28335;SDS011;15592;53.656;7.276;2023-08-08T09:36:55;18.92;;;3.42;;
28335;SDS011;15592;53.656;7.276;2023-08-08T09:39:20;17.20;;;3.17;;
28335;SDS011;15592;53.656;7.276;2023-08-08T09:41:46;14.57;;;3.00;;
28335;SDS011;15592;53.656;7.276;2023-08-08T09:44:12;20.27;;;3.35;;
28335;SDS011;15592;53.656;7.276;2023-08-08T09:46:39;24.33;;;4.10;;
28335;SDS011;15592;53.656;7.276;2023-08-08T09:49:05;26.45;;;5.07;;
28335;SDS011;15592;53.656;7.276;2023-08-08T09:51:31;30.70;;;4.05;;
28335;SDS011;15592;53.656;7.276;2023-08-08T09:53:59;20.05;;;4.22;;
28335;SDS011;15592;53.656;7.276;2023-08-08T09:56:25;16.65;;;4.03;;
28335;SDS011;15592;53.656;7.276;2023-08-08T09:58:52;23.52;;;4.18;;
28335;SDS011;15592;53.656;7.276;2023-08-08T10:01:18;21.70;;;4.88;;
28335;SDS011;15592;53.656;7.276;2023-08-08T10:03:45;20.40;;;4.00;;
28335;SDS011;15592;53.656;7.276;2023-08-08T10:06:12;29.23;;;5.55;;
28335;SDS011;15592;53.656;7.276;2023-08-08T10:08:38;20.08;;;5.10;;
28335;SDS011;15592;53.656;7.276;2023-08-08T10:11:05;17.98;;;4.30;;
28335;SDS011;15592;53.656;7.276;2023-08-08T10:13:34;24.15;;;4.15;;
28335;SDS011;15592;53.656;7.276;2023-08-08T10:16:03;14.77;;;3.30;;
28335;SDS011;15592;53.656;7.276;2023-08-08T10:18:33;23.13;;;4.35;;
28335;SDS011;15592;53.656;7.276;2023-08-08T10:20:59;21.83;;;3.58;;
28335;SDS011;15592;53.656;7.276;2023-08-08T10:23:25;15.85;;;3.53;;
28335;SDS011;15592;53.656;7.276;2023-08-08T10:25:51;14.52;;;3.40;;
28335;SDS011;15592;53.656;7.276;2023-08-08T10:28:18;14.63;;;3.40;;
28335;SDS011;15592;53.656;7.276;2023-08-08T10:30:46;14.43;;;3.35;;
28335;SDS011;15592;53.656;7.276;2023-08-08T10:33:17;12.77;;;3.33;;
28335;SDS011;15592;53.656;7.276;2023-08-08T10:35:50;13.77;;;3.45;;
28335;SDS011;15592;53.656;7.276;2023-08-08T10:38:16;16.48;;;3.50;;
28335;SDS011;15592;53.656;7.276;2023-08-08T10:40:42;12.60;;;3.22;;
28335;SDS011;15592;53.656;7.276;2023-08-08T10:43:11;11.70;;;2.33;;
28335;SDS011;15592;53.656;7.276;2023-08-08T10:45:40;10.70;;;3.22;;
28335;SDS011;15592;53.656;7.276;2023-08-08T10:48:09;8.23;;;2.85;;
28335;SDS011;15592;53.656;7.276;2023-08-08T10:50:39;13.13;;;3.30;;
28335;SDS011;15592;53.656;7.276;2023-08-08T10:53:07;14.80;;;2.85;;
28335;SDS011;15592;53.656;7.276;2023-08-08T10:55:35;12.65;;;2.75;;
28335;SDS011;15592;53.656;7.276;2023-08-08T10:58:08;10.68;;;2.55;;
28335;SDS011;15592;53.656;7.276;2023-08-08T11:00:36;15.43;;;3.67;;
28335;SDS011;15592;53.656;7.276;2023-08-08T11:03:05;13.97;;;2.53;;
28335;SDS011;15592;53.656;7.276;2023-08-08T11:05:31;9.50;;;2.60;;
28335;SDS011;15592;53.656;7.276;2023-08-08T11:07:58;12.20;;;3.10;;
28335;SDS011;15592;53.656;7.276;2023-08-08T11:10:25;18.52;;;3.95;;
28335;SDS011;15592;53.656;7.276;2023-08-08T11:13:06;14.07;;;3.35;;
28335;SDS011;15592;53.656;7.276;2023-08-08T11:15:33;14.05;;;3.22;;
28335;SDS011;15592;53.656;7.276;2023-08-08T11:18:00;12.85;;;3.50;;
28335;SDS011;15592;53.656;7.276;2023-08-08T11:20:31;21.75;;;3.25;;
28335;SDS011;15592;53.656;7.276;2023-08-08T11:22:58;13.05;;;2.63;;
28335;SDS011;15592;53.656;7.276;2023-08-08T11:25:27;14.95;;;2.90;;
28335;SDS011;15592;53.656;7.276;2023-08-08T11:27:54;14.55;;;2.88;;
28335;SDS011;15592;53.656;7.276;2023-08-08T11:30:21;17.08;;;3.53;;
28335;SDS011;15592;53.656;7.276;2023-08-08T11:32:48;16.33;;;3.70;;
28335;SDS011;15592;53.656;7.276;2023-08-08T11:35:20;11.07;;;2.85;;
28335;SDS011;15592;53.656;7.276;2023-08-08T11:37:47;11.95;;;2.75;;
28335;SDS011;15592;53.656;7.276;2023-08-08T11:40:14;14.88;;;3.88;;
28335;SDS011;15592;53.656;7.276;2023-08-08T11:42:41;16.10;;;3.22;;
28335;SDS011;15592;53.656;7.276;2023-08-08T11:45:13;14.73;;;3.03;;
28335;SDS011;15592;53.656;7.276;2023-08-08T11:47:39;10.63;;;2.92;;
28335;SDS011;15592;53.656;7.276;2023-08-08T11:50:06;13.90;;;3.33;;
28335;SDS011;15592;53.656;7.276;2023-08-08T11:52:44;16.58;;;3.53;;
28335;SDS011;15592;53.656;7.276;2023-08-08T11:55:11;15.60;;;3.20;;
28335;SDS011;15592;53.656;7.276;2023-08-08T11:57:41;16.13;;;3.17;;
28335;SDS011;15592;53.656;7.276;2023-08-08T12:00:07;8.75;;;2.55;;
28335;SDS011;15592;53.656;7.276;2023-08-08T12:02:34;13.70;;;2.80;;
28335;SDS011;15592;53.656;7.276;2023-08-08T12:05:04;14.45;;;3.10;;
28335;SDS011;15592;53.656;7.276;2023-08-08T12:07:31;11.80;;;2.97;;
28335;SDS011;15592;53.656;7.276;2023-08-08T12:09:59;24.25;;;4.70;;
28335;SDS011;15592;53.656;7.276;2023-08-08T12:12:26;34.30;;;6.00;;
28335;SDS011;15592;53.656;7.276;2023-08-08T12:14:53;23.70;;;4.68;;
28335;SDS011;15592;53.656;7.276;2023-08-08T12:17:20;15.27;;;3.20;;
28335;SDS011;15592;53.656;7.276;2023-08-08T12:19:47;14.90;;;3.65;;
28335;SDS011;15592;53.656;7.276;2023-08-08T12:22:13;16.20;;;3.08;;
28335;SDS011;15592;53.656;7.276;2023-08-08T12:24:39;19.70;;;3.15;;
28335;SDS011;15592;53.656;7.276;2023-08-08T12:27:05;28.52;;;4.82;;
28335;SDS011;15592;53.656;7.276;2023-08-08T12:29:31;17.30;;;3.40;;
28335;SDS011;15592;53.656;7.276;2023-08-08T12:31:56;17.65;;;3.47;;
28335;SDS011;15592;53.656;7.276;2023-08-08T12:34:22;21.15;;;4.07;;
28335;SDS011;15592;53.656;7.276;2023-08-08T12:36:48;24.95;;;4.57;;
28335;SDS011;15592;53.656;7.276;2023-08-08T12:39:14;20.60;;;3.25;;
28335;SDS011;15592;53.656;7.276;2023-08-08T12:41:40;24.13;;;4.28;;
28335;SDS011;15592;53.656;7.276;2023-08-08T12:44:05;17.27;;;3.70;;
28335;SDS011;15592;53.656;7.276;2023-08-08T12:46:33;13.77;;;3.55;;
28335;SDS011;15592;53.656;7.276;2023-08-08T12:48:58;14.77;;;3.33;;
28335;SDS011;15592;53.656;7.276;2023-08-08T12:51:24;12.90;;;2.83;;
28335;SDS011;15592;53.656;7.276;2023-08-08T12:53:50;11.35;;;3.15;;
28335;SDS011;15592;53.656;7.276;2023-08-08T12:56:16;15.68;;;3.03;;
28335;SDS011;15592;53.656;7.276;2023-08-08T12:58:41;16.73;;;2.80;;
28335;SDS011;15592;53.656;7.276;2023-08-08T13:01:07;15.48;;;3.28;;
28335;SDS011;15592;53.656;7.276;2023-08-08T13:03:33;8.48;;;2.38;;
28335;SDS011;15592;53.656;7.276;2023-08-08T13:06:01;11.13;;;2.95;;
28335;SDS011;15592;53.656;7.276;2023-08-08T13:08:27;12.70;;;2.47;;
28335;SDS011;15592;53.656;7.276;2023-08-08T13:10:52;10.48;;;3.03;;
28335;SDS011;15592;53.656;7.276;2023-08-08T13:13:18;15.43;;;2.88;;
28335;SDS011;15592;53.656;7.276;2023-08-08T13:15:44;14.05;;;3.00;;
28335;SDS011;15592;53.656;7.276;2023-08-08T13:18:11;12.50;;;2.70;;
28335;SDS011;15592;53.656;7.276;2023-08-08T13:20:36;12.88;;;3.25;;
28335;SDS011;15592;53.656;7.276;2023-08-08T13:23:02;18.10;;;3.58;;
28335;SDS011;15592;53.656;7.276;2023-08-08T13:25:29;11.40;;;2.55;;
28335;SDS011;15592;53.656;7.276;2023-08-08T13:27:56;16.98;;;3.28;;
28335;SDS011;15592;53.656;7.276;2023-08-08T13:30:22;13.18;;;2.95;;
28335;SDS011;15592;53.656;7.276;2023-08-08T13:32:48;17.13;;;3.50;;
28335;SDS011;15592;53.656;7.276;2023-08-08T13:35:13;16.88;;;3.22;;
28335;SDS011;15592;53.656;7.276;2023-08-08T13:37:39;10.57;;;2.58;;
28335;SDS011;15592;53.656;7.276;2023-08-08T13:40:05;10.20;;;2.53;;
28335;SDS011;15592;53.656;7.276;2023-08-08T13:42:31;11.93;;;2.75;;
28335;SDS011;15592;53.656;7.276;2023-08-08T13:44:56;12.05;;;2.60;;
28335;SDS011;15592;53.656;7.276;2023-08-08T13:47:22;12.15;;;2.78;;
28335;SDS011;15592;53.656;7.276;2023-08-08T13:49:48;12.77;;;2.83;;
28335;SDS011;15592;53.656;7.276;2023-08-08T13:52:13;19.88;;;3.58;;
28335;SDS011;15592;53.656;7.276;2023-08-08T13:54:39;11.68;;;2.63;;
28335;SDS011;15592;53.656;7.276;2023-08-08T13:57:04;10.98;;;2.50;;
28335;SDS011;15592;53.656;7.276;2023-08-08T13:59:30;19.80;;;4.13;;
28335;SDS011;15592;53.656;7.276;2023-08-08T14:01:56;24.33;;;4.30;;
28335;SDS011;15592;53.656;7.276;2023-08-08T14:07:17;39.45;;;5.22;;
28335;SDS011;15592;53.656;7.276;2023-08-08T14:12:34;19.30;;;3.42;;
28335;SDS011;15592;53.656;7.276;2023-08-08T14:15:02;17.13;;;3.53;;
28335;SDS011;15592;53.656;7.276;2023-08-08T14:17:31;16.73;;;3.50;;
28335;SDS011;15592;53.656;7.276;2023-08-08T14:20:00;11.88;;;3.28;;
28335;SDS011;15592;53.656;7.276;2023-08-08T14:22:29;17.40;;;3.83;;
28335;SDS011;15592;53.656;7.276;2023-08-08T14:24:55;23.42;;;4.47;;
28335;SDS011;15592;53.656;7.276;2023-08-08T14:27:30;23.58;;;4.25;;
28335;SDS011;15592;53.656;7.276;2023-08-08T14:30:16;21.60;;;3.95;;
28335;SDS011;15592;53.656;7.276;2023-08-08T14:32:41;17.30;;;3.45;;
28335;SDS011;15592;53.656;7.276;2023-08-08T14:35:07;17.05;;;3.20;;
28335;SDS011;15592;53.656;7.276;2023-08-08T14:37:34;19.33;;;3.85;;
28335;SDS011;15592;53.656;7.276;2023-08-08T14:40:00;15.63;;;2.95;;